Latest Coastal Weather Observations for Cape Sorell

IDT60701

Issued at 8:32 pm EST Thursday 28 July 2016 (issued every 10 minutes, with the page automatically refreshed every 10 minutes)

About coastal observations | Map of coastal stations | Coastal observations for TAS | Marine services | Other Formats
Station Details ID: 097000 Name: CAPE SORELL Lat: -42.20 Lon: 145.17 Height: 19.3 m
Data from the previous 72 hours. | See also: Recent months at Cape Sorell
Date/Time
EST
Temp
°C
Wind Pressure Rain since
9am
mm
Weather Cloud Vis
km
Sea
Height
m
Swell
Dir  Spd
kts
Gust
kts
hPa Trend Height
m
Period
s
Dir
28/08:30pm 9.6 WNW 14 21 1014.5 - 1.2 - - - - - - -
28/08:00pm 10.1 WSW 16 23 1014.5 - 1.0 - - - - - - -
28/07:30pm 9.8 W 10 17 1014.7 - 0.8 - - - - - - -
28/07:00pm 9.7 W 19 24 1014.7 - 0.8 - - - - - - -
28/06:46pm 10.2 W 15 27 1014.3 - 0.8 - - - - - - -
28/06:30pm 10.1 W 15 20 1014.6 - 0.8 - - - - - - -
28/06:00pm 10.3 W 16 26 1014.0 - 0.8 Recent precip. - - - - - -
28/05:30pm 10.1 W 15 23 1013.9 - 0.8 - - - - - - -
28/05:00pm 10.3 W 20 29 1013.7 - 0.6 - - - - - - -
28/04:56pm 10.7 W 17 29 1013.7 - 0.6 - - - - - - -
28/04:30pm 11.1 WNW 17 23 1013.8 - 0.6 - - - - - - -
28/04:00pm 11.0 W 16 23 1013.6 - 0.6 - - - - - - -
28/03:30pm 10.2 W 17 26 1013.6 - 0.6 - - - - - - -
28/03:00pm 10.6 W 18 24 1013.6 - 0.6 - - - - - - -
28/02:30pm 11.7 W 18 24 1013.4 - 0.6 - - - - - - -
28/02:00pm 10.7 W 18 25 1013.2 - 0.6 - - - - - - -
28/01:30pm 10.4 WSW 21 29 1013.5 - 0.6 - - - - - - -
28/01:10pm 11.3 W 18 33 1013.4 - 0.6 - - - - - - -
28/01:00pm 10.9 WNW 16 23 1013.7 - 0.6 - - - - - - -
28/12:40pm 11.6 WNW 17 27 1013.9 - 0.6 - - - - - - -
28/12:30pm 12.1 WNW 17 23 1013.9 - 0.4 - - - - - - -
28/12:01pm 10.9 WNW 17 27 1014.0 - 0.4 - - - - - - -
28/12:00pm 10.9 WNW 18 27 1014.1 - 0.4 - - - - - - -
28/11:50am 11.4 W 16 26 1014.1 - 0.4 - - - - - - -
28/11:30am 11.5 W 18 25 1014.2 - 0.4 - - - - - - -
28/11:00am 11.2 W 17 23 1014.3 - 0.4 - - - - - - -
28/10:33am 10.9 W 21 33 1014.0 - 0.4 - - - - - - -
28/10:30am 11.4 W 19 27 1014.0 - 0.4 - - - - - - -
28/10:02am 10.9 W 22 32 1013.8 - 0.4 - - - - - - -
28/10:00am 10.9 W 23 32 1013.7 - 0.4 - - - - - - -
28/09:37am 11.4 W 20 30 1013.6 - 0.4 - - - - - - -
28/09:30am 10.9 W 20 29 1013.4 - 0.4 - - - - - - -
28/09:09am 10.9 W 20 31 1013.8 - 0.0 - - - - - - -
28/09:00am 11.0 W 20 29 1013.5 - 3.4 - - - - - - -
28/08:30am 10.8 W 21 28 1013.1 - 3.4 - - - - - - -
28/08:00am 11.0 W 20 31 1013.1 - 3.4 - - - - - - -
28/07:30am 10.6 W 22 30 1012.6 - 3.2 - - - - - - -
28/07:18am 11.0 WNW 21 33 1012.2 - 3.0 - - - - - - -
28/07:00am 10.8 WNW 21 29 1012.3 - 3.0 - - - - - - -
28/06:30am 10.9 W 22 28 1011.9 - 3.0 - - - - - - -
28/06:00am 10.7 W 22 32 1011.6 - 3.0 Recent precip. - - - - - -
28/05:30am 10.7 WNW 26 36 1011.2 - 3.0 - - - - - - -
28/05:20am 10.8 W 20 31 1011.1 - 3.0 - - - - - - -
28/05:00am 10.9 W 19 27 1011.1 - 2.6 - - - - - - -
28/04:30am 10.6 W 22 29 1011.0 - 2.6 - - - - - - -
28/04:19am 10.8 W 18 29 1011.1 - 2.6 - - - - - - -
28/04:00am 10.6 W 22 30 1011.2 - 2.4 - - - - - - -
28/03:30am 10.8 WNW 20 27 1011.2 - 2.2 - - - - - - -
28/03:00am 10.7 W 18 26 1011.6 - 1.8 Recent precip. - - - - - -
28/02:30am 11.0 W 18 26 1011.9 - 0.8 - - - - - - -
28/02:00am 10.4 W 20 30 1011.8 - 0.8 - - - - - - -
28/01:36am 10.9 W 19 29 1011.9 - 0.4 - - - - - - -
28/01:30am 11.0 W 20 30 1011.9 - 0.4 - - - - - - -
28/01:15am 11.7 W 18 28 1011.6 - 0.4 - - - - - - -
28/01:00am 11.9 W 22 28 1011.8 - 0.4 - - - - - - -
28/12:30am 11.5 W 18 26 1011.0 - 0.4 - - - - - - -
28/12:00am 11.5 W 17 25 1011.0 - 0.4 - - - - - - -
 
Date/Time
EST
Temp
°C
Wind Pressure Rain since
9am
mm
Weather Cloud Vis
km
Sea
Height
m
Swell
Dir  Spd
kts
Gust
kts
hPa Trend Height
m
Period
s
Dir
27/11:30pm 11.3 W 20 27 1010.6 - 0.4 - - - - - - -
27/11:18pm 11.5 W 20 31 1010.8 - 0.4 - - - - - - -
27/11:00pm 11.6 WSW 23 28 1010.6 - 0.4 - - - - - - -
27/10:30pm 11.5 WSW 23 30 1010.3 - 0.4 - - - - - - -
27/10:00pm 11.8 WSW 25 32 1010.1 - 0.4 - - - - - - -
27/09:30pm 11.4 WSW 27 35 1009.3 - 0.4 - - - - - - -
27/09:00pm 11.6 WSW 26 34 1009.0 - 0.4 - - - - - - -
27/08:30pm 11.5 WSW 29 39 1008.7 - 0.4 - - - - - - -
27/08:00pm 11.4 WSW 30 37 1008.5 - 0.4 - - - - - - -
27/07:30pm 11.4 WSW 33 41 1007.6 - 0.4 - - - - - - -
27/07:00pm 11.5 WSW 30 42 1007.1 - 0.2 - - - - - - -
27/06:30pm 11.4 W 30 41 1006.8 - 0.2 - - - - - - -
27/06:00pm 11.2 W 30 43 1006.5 - 0.2 - - - - - - -
27/05:30pm 11.1 W 25 39 1006.9 - 0.2 - - - - - - -
27/05:00pm 10.7 W 30 41 1006.6 - 0.2 - - - - - - -
27/04:30pm 10.1 WNW 28 39 1006.5 - 0.2 - - - - - - -
27/04:00pm 9.4 WNW 28 41 1007.2 - 0.2 - - - - - - -
27/03:33pm 9.5 WNW 28 38 1006.5 - 0.0 - - - - - - -
27/03:30pm 9.5 WNW 28 36 1006.6 - 0.0 - - - - - - -
27/03:00pm 8.8 WNW 26 34 1007.0 - 0.0 - - - - - - -
27/02:31pm 8.9 WNW 21 32 1007.2 - 0.0 - - - - - - -
27/02:30pm 8.7 WNW 22 32 1007.2 - 0.0 - - - - - - -
27/02:09pm 9.4 WNW 21 38 1007.3 - 0.0 - - - - - - -
27/02:00pm 9.0 NW 18 28 1007.2 - 0.0 - - - - - - -
27/01:44pm 9.3 WNW 17 32 1007.3 - 0.0 - - - - - - -
27/01:30pm 9.1 WNW 17 23 1007.9 - 0.0 - - - - - - -
27/01:01pm 9.2 W 16 26 1008.1 - 0.0 - - - - - - -
27/01:00pm 9.2 W 16 22 1008.2 - 0.0 - - - - - - -
27/12:30pm 9.6 W 19 26 1008.3 - 0.0 - - - - - - -
27/12:00pm 9.7 W 18 25 1008.1 - 0.0 - - - - - - -
27/11:38am 8.3 W 18 29 1008.2 - 0.0 - - - - - - -
27/11:30am 8.9 W 17 28 1007.7 - 0.0 - - - - - - -
27/11:29am 9.2 W 16 28 1007.7 - 0.0 - - - - - - -
27/11:00am 8.2 SW 12 16 1007.9 - 0.0 - - - - - - -
27/10:54am 8.0 SW 17 28 1007.9 - 0.0 - - - - - - -
27/10:30am 8.8 WSW 17 23 1007.5 - 0.0 - - - - - - -
27/10:00am 8.4 SW 13 16 1007.5 - 0.0 - - - - - - -
27/09:30am 8.6 WSW 14 18 1007.1 - 0.0 - - - - - - -
27/09:00am 8.1 SW 13 16 1007.1 - 12.4 - - - - - - -
27/08:30am 8.0 SW 20 24 1006.5 - 12.4 - - - - - - -
27/08:00am 7.7 SW 19 22 1006.0 - 12.4 - - - - - - -
27/07:30am 7.5 SW 14 19 1005.7 - 12.4 - - - - - - -
27/07:00am 7.8 SW 20 25 1004.8 - 12.4 - - - - - - -
27/06:30am 8.0 SW 21 25 1004.1 - 12.4 - - - - - - -
27/06:00am 8.0 SW 24 27 1003.5 - 12.4 - - - - - - -
27/05:30am 7.5 SW 24 28 1002.8 - 12.4 - - - - - - -
27/05:00am 7.5 SW 20 26 1002.4 - 12.4 - - - - - - -
27/04:47am 6.5 SW 25 35 1002.5 - 12.4 - - - - - - -
27/04:44am 6.9 SW 30 40 1002.2 - 12.4 - - - - - - -
27/04:33am 7.9 SW 26 41 1001.1 - 12.4 - - - - - - -
27/04:31am 8.2 SW 23 38 1001.4 - 12.4 - - - - - - -
27/04:30am 7.9 SW 22 26 1001.6 - 12.4 - - - - - - -
27/04:00am 8.1 SSW 22 27 1001.1 - 12.4 - - - - - - -
27/03:38am 7.9 SSW 22 35 1000.2 - 12.4 - - - - - - -
27/03:30am 7.8 SSW 22 28 1000.3 - 12.4 - - - - - - -
27/03:00am 7.3 SSW 26 35 999.9 - 12.4 - - - - - - -
27/02:56am 7.7 SSW 24 34 999.6 - 12.4 - - - - - - -
27/02:30am 8.1 SSW 26 32 998.8 - 12.4 - - - - - - -
27/02:00am 7.5 SW 32 37 997.3 - 12.4 - - - - - - -
27/01:30am 8.3 SW 31 41 996.3 - 12.2 - - - - - - -
27/01:26am 8.6 SW 30 41 995.7 - 12.2 - - - - - - -
27/01:16am 9.4 WSW 27 34 996.0 - 12.2 - - - - - - -
27/01:00am 9.2 W 25 38 995.7 - 12.0 - - - - - - -
27/12:43am 9.0 WNW 23 37 995.7 - 11.8 - - - - - - -
27/12:42am 8.8 WNW 23 37 995.8 - 11.8 - - - - - - -
27/12:39am 9.5 NW 22 37 995.6 - 11.8 - - - - - - -
27/12:38am 9.9 NW 21 36 995.5 - 11.8 - - - - - - -
27/12:30am 9.9 NW 16 24 995.8 - 11.8 - - - - - - -
27/12:06am 9.7 NW 20 31 996.0 - 10.0 - - - - - - -
27/12:00am 10.1 NW 19 25 996.0 - 9.2 - - - - - - -
 
Date/Time
EST
Temp
°C
Wind Pressure Rain since
9am
mm
Weather Cloud Vis
km
Sea
Height
m
Swell
Dir  Spd
kts
Gust
kts
hPa Trend Height
m
Period
s
Dir
26/11:30pm 9.5 NW 21 28 996.2 - 9.2 - - - - - - -
26/11:00pm 9.6 NNW 21 29 996.2 - 9.2 - - - - - - -
26/10:30pm 10.0 NNW 23 30 996.1 - 8.0 - - - - - - -
26/10:07pm 9.8 NNW 21 32 996.2 - 8.0 - - - - - - -
26/10:00pm 10.0 NNW 21 31 996.5 - 8.0 - - - - - - -
26/09:56pm 9.9 NNW 23 33 996.6 - 8.0 - - - - - - -
26/09:30pm 8.9 N 25 32 996.7 - 7.8 - - - - - - -
26/09:14pm 10.0 NNW 22 34 996.4 - 7.2 - - - - - - -
26/09:00pm 9.7 NNW 24 31 996.7 - 7.2 Recent precip. - - - - - -
26/08:30pm 8.7 NNW 19 26 997.4 - 7.0 - - - - - - -
26/08:12pm 9.5 NNW 18 29 997.7 - 6.6 - - - - - - -
26/08:00pm 9.1 NW 20 26 997.8 - 6.6 - - - - - - -
26/07:34pm 9.0 NNW 24 34 998.0 - 6.6 - - - - - - -
26/07:30pm 8.8 NNW 23 30 997.9 - 6.6 - - - - - - -
26/07:10pm 8.8 NNW 16 34 998.3 - 6.0 - - - - - - -
26/07:00pm 8.3 NNW 17 24 998.4 - 5.8 - - - - - - -
26/06:30pm 7.3 NNW 22 33 999.1 - 5.8 - - - - - - -
26/06:28pm 7.9 NNW 20 33 999.0 - 5.8 - - - - - - -
26/06:00pm 8.1 NW 16 22 999.1 - 5.4 Recent precip. - - - - - -
26/05:30pm 7.5 NW 16 27 999.4 - 5.4 - - - - - - -
26/05:00pm 7.1 NW 20 33 999.6 - 4.6 - - - - - - -
26/04:33pm 6.8 WNW 18 28 999.8 - 4.4 - - - - - - -
26/04:30pm 6.6 WNW 21 31 999.9 - 4.4 - - - - - - -
26/04:25pm 6.6 W 19 31 1000.0 - 4.2 - - - - - - -
26/04:21pm 6.8 W 16 26 1000.0 - 4.0 - - - - - - -
26/04:00pm 7.7 NW 18 26 1000.0 - 3.0 - - - - - - -
26/03:46pm 7.9 NW 18 31 999.8 - 2.8 - - - - - - -
26/03:39pm 8.1 WNW 19 25 999.9 - 2.6 - - - - - - -
26/03:30pm 7.8 W 20 32 999.7 - 2.6 - - - - - - -
26/03:26pm 7.9 W 18 28 999.5 - 2.6 - - - - - - -
26/03:00pm 8.1 W 23 34 999.5 - 2.6 Recent precip. - - - - - -
26/02:57pm 8.1 WNW 22 32 999.6 - 2.6 - - - - - - -
26/02:41pm 7.7 NW 15 26 999.9 - 2.6 - - - - - - -
26/02:30pm 7.2 NW 12 19 1000.3 - 2.6 - - - - - - -
26/02:11pm 6.6 NW 22 32 1000.6 - 2.4 - - - - - - -
26/02:00pm 7.2 WNW 23 32 1000.4 - 1.6 - - - - - - -
26/01:40pm 8.3 W 24 34 1000.1 - 1.4 - - - - - - -
26/01:30pm 8.8 WNW 25 33 1000.0 - 1.4 - - - - - - -
26/01:00pm 8.8 WNW 20 27 1000.4 - 1.4 - - - - - - -
26/12:30pm 7.3 W 25 36 1000.7 - 1.4 - - - - - - -
26/12:18pm 8.5 WNW 21 36 1000.6 - 1.4 - - - - - - -
26/12:00pm 8.1 WNW 19 23 1000.8 - 1.4 Recent precip. - - - - - -
26/11:43am 6.7 WNW 25 40 1001.4 - 1.4 - - - - - - -
26/11:37am 7.5 WNW 27 40 1000.8 - 1.2 - - - - - - -
26/11:33am 8.2 W 22 37 1000.6 - 1.2 - - - - - - -
26/11:30am 8.3 W 19 31 1000.8 - 1.2 - - - - - - -
26/11:05am 8.9 W 17 28 1001.1 - 0.0 - - - - - - -
26/11:00am 9.0 W 16 22 1001.1 - 0.0 - - - - - - -
26/10:44am 9.1 W 22 31 1001.1 - 0.0 - - - - - - -
26/10:30am 9.1 WNW 23 32 1001.0 - 0.0 - - - - - - -
26/10:00am 9.0 W 25 35 1000.5 - 0.0 - - - - - - -
26/09:38am 9.2 W 26 37 1000.1 - 0.0 - - - - - - -
26/09:30am 8.8 W 26 34 1000.4 - 0.0 - - - - - - -
26/09:01am 9.2 W 21 31 1000.3 - 0.0 - - - - - - -
26/09:00am 9.3 W 22 31 1000.2 - 12.6 Recent precip. - - - - - -
26/08:30am 8.1 W 23 36 999.6 - 12.6 - - - - - - -
26/08:14am 7.0 WSW 24 44 1000.2 - 12.6 - - - - - - -
26/08:10am 6.7 WSW 31 46 1000.1 - 12.6 - - - - - - -
26/08:07am 6.7 WSW 32 46 999.8 - 12.6 - - - - - - -
26/08:05am 7.3 W 30 46 999.0 - 12.4 - - - - - - -
26/08:00am 8.6 W 24 40 999.3 - 12.4 - - - - - - -
26/07:37am 8.6 W 26 37 999.1 - 12.4 - - - - - - -
26/07:30am 8.5 W 28 36 998.9 - 12.4 - - - - - - -
26/07:00am 8.6 WSW 33 39 997.7 - 12.4 - - - - - - -
26/06:38am 8.4 WSW 27 38 997.4 - 12.4 - - - - - - -
26/06:30am 8.3 W 26 35 997.8 - 12.4 - - - - - - -
26/06:13am 8.0 WSW 29 39 997.0 - 12.4 - - - - - - -
26/06:00am 7.9 WSW 30 40 996.8 - 12.4 - - - - - - -
26/05:30am 7.5 W 29 40 996.6 - 12.4 - - - - - - -
26/05:00am 7.3 W 33 47 995.7 - 12.4 - - - - - - -
26/04:30am 7.3 WSW 30 41 994.7 - 11.8 - - - - - - -
26/04:25am 7.3 WSW 29 39 995.0 - 11.8 - - - - - - -
26/04:14am 6.5 WSW 32 41 994.9 - 11.8 - - - - - - -
26/04:00am 7.9 W 27 37 994.7 - 11.4 - - - - - - -
26/03:59am 7.9 W 27 37 994.6 - 11.4 - - - - - - -
26/03:55am 7.8 W 27 37 995.0 - 11.4 - - - - - - -
26/03:30am 8.0 WSW 35 46 994.4 - 11.4 - - - - - - -
26/03:00am 8.3 WSW 31 43 994.1 - 11.4 - - - - - - -
26/02:30am 8.6 W 29 40 993.7 - 11.4 - - - - - - -
26/02:17am 8.4 W 27 40 993.3 - 11.4 - - - - - - -
26/02:07am 8.1 W 32 44 993.5 - 11.4 - - - - - - -
26/02:00am 7.5 W 40 54 993.1 - 11.4 - - - - - - -
26/01:54am 7.8 W 38 54 992.2 - 11.4 - - - - - - -
26/01:51am 8.4 W 35 50 992.3 - 11.4 - - - - - - -
26/01:30am 8.4 W 29 41 992.7 - 11.4 - - - - - - -
26/01:00am 8.4 W 30 42 992.3 - 11.4 - - - - - - -
26/12:30am 8.6 W 32 45 992.0 - 11.4 - - - - - - -
26/12:00am 8.0 W 31 46 991.0 - 11.4 Recent precip. - - - - - -
 
Date/Time
EST
Temp
°C
Wind Pressure Rain since
9am
mm
Weather Cloud Vis
km
Sea
Height
m
Swell
Dir  Spd
kts
Gust
kts
hPa Trend Height
m
Period
s
Dir
25/11:30pm 6.3 W 27 46 991.8 - 11.4 - - - - - - -
25/11:24pm 6.4 WNW 24 46 992.0 - 11.2 - - - - - - -
25/11:18pm 7.0 WNW 23 33 991.8 - 10.6 - - - - - - -
25/11:03pm 6.3 W 27 42 992.0 - 10.6 - - - - - - -
25/11:00pm 6.3 W 31 43 992.1 - 10.6 - - - - - - -
25/10:58pm 6.4 W 34 51 991.8 - 10.4 - - - - - - -
25/10:50pm 6.7 W 35 52 991.2 - 10.2 - - - - - - -
25/10:49pm 6.7 W 34 52 990.5 - 10.2 - - - - - - -
25/10:30pm 7.4 WSW 34 46 990.5 - 10.2 - - - - - - -
25/10:27pm 7.8 WSW 33 43 990.8 - 10.2 - - - - - - -
25/10:22pm 7.7 W 31 41 990.6 - 10.2 - - - - - - -
25/10:00pm 6.8 WNW 30 43 990.8 - 10.2 - - - - - - -
25/09:54pm 7.4 W 26 38 990.9 - 10.0 - - - - - - -
25/09:47pm 7.1 W 29 40 990.4 - 9.8 - - - - - - -
25/09:43pm 7.2 W 28 40 989.8 - 9.8 - - - - - - -
25/09:30pm 8.1 W 24 35 990.2 - 9.8 - - - - - - -
25/09:23pm 8.8 WNW 23 34 990.3 - 9.6 - - - - - - -
25/09:00pm 8.0 WNW 23 31 990.5 - 9.6 - - - - - - -

Other Formats:

Comma delimited format used in spreadsheet applications
http://www.bom.gov.au/fwo/IDT60701/IDT60701.94974.axf

JavaScript Object Notation format (JSON) in row-major order
http://www.bom.gov.au/fwo/IDT60701/IDT60701.94974.json